Time;durP1;ratioP1;P1;durP2;ratioP2;P2;SDS_P1;SDS_P2;PMS_P1;PMS_P2;Temp;Humidity;BMP_temperature;BMP_pressure;BME280_temperature;BME280_humidity;BME280_pressure;Samples;Min_cycle;Max_cycle;Signal;HPM_P1;HPM_P2
2021/10/20 00:01:00;;;;;;;15.38;8.15;;;17.00;99.90;;;;;;2088148;28;20083;-74
2021/10/20 00:02:01;;;;;;;15.88;8.00;;;17.10;99.90;;;;;;2081264;28;20030;-72
2021/10/20 00:03:01;;;;;;;13.32;7.32;;;17.10;99.90;;;;;;2086653;28;20097;-74
2021/10/20 00:04:04;;;;;;;13.00;7.88;;;17.10;99.90;;;;;;2083844;28;20068;-71
2021/10/20 00:05:05;;;;;;;12.27;8.23;;;17.00;99.90;;;;;;2088443;28;20024;-73
2021/10/20 00:06:06;;;;;;;13.90;7.85;;;17.10;99.90;;;;;;2087352;28;20107;-71
2021/10/20 00:07:07;;;;;;;13.48;7.80;;;17.10;99.90;;;;;;2086144;28;20100;-74
2021/10/20 00:08:07;;;;;;;13.38;7.70;;;17.10;99.90;;;;;;2086320;28;20029;-72
2021/10/20 00:09:08;;;;;;;16.88;7.75;;;17.10;99.90;;;;;;2079681;28;20022;-71
2021/10/20 00:10:09;;;;;;;17.02;8.07;;;17.10;99.90;;;;;;2088540;28;20455;-75
2021/10/20 00:11:10;;;;;;;13.43;7.60;;;17.10;99.90;;;;;;2087471;28;20021;-71
2021/10/20 00:12:11;;;;;;;15.93;7.93;;;17.10;99.90;;;;;;2079153;28;20265;-71
2021/10/20 00:13:11;;;;;;;19.30;7.60;;;17.10;99.90;;;;;;2078163;28;20524;-75
2021/10/20 00:14:12;;;;;;;14.18;7.97;;;17.10;99.90;;;;;;2081078;28;20018;-74
2021/10/20 00:15:15;;;;;;;13.38;7.72;;;17.10;99.90;;;;;;2079906;28;20693;-74
2021/10/20 00:16:17;;;;;;;13.02;7.75;;;17.10;99.90;;;;;;2084519;28;20022;-73
2021/10/20 00:17:19;;;;;;;16.38;7.97;;;17.10;99.90;;;;;;2081888;28;20040;-74
2021/10/20 00:18:20;;;;;;;12.48;8.10;;;17.10;99.90;;;;;;2072002;28;20026;-75
2021/10/20 00:19:20;;;;;;;16.23;9.25;;;17.10;99.90;;;;;;2080364;28;20117;-76
2021/10/20 00:20:24;;;;;;;14.60;8.35;;;17.10;99.90;;;;;;2084963;28;20096;-76
2021/10/20 00:21:27;;;;;;;18.17;8.77;;;17.10;99.90;;;;;;2084459;28;20033;-77
2021/10/20 00:22:27;;;;;;;12.73;8.45;;;17.10;99.90;;;;;;2076676;28;20033;-76
2021/10/20 00:23:28;;;;;;;14.77;8.35;;;17.10;99.90;;;;;;2083663;28;20535;-77
2021/10/20 00:24:29;;;;;;;13.52;8.63;;;17.10;99.90;;;;;;2084320;28;20073;-78
2021/10/20 00:25:29;;;;;;;18.33;8.70;;;17.10;99.90;;;;;;2084006;28;20086;-80
2021/10/20 00:26:30;;;;;;;14.18;8.23;;;17.10;99.90;;;;;;2083937;28;20105;-78
2021/10/20 00:27:31;;;;;;;17.70;8.40;;;17.10;99.90;;;;;;2079918;28;20046;-73
2021/10/20 00:28:32;;;;;;;18.55;8.80;;;17.10;99.90;;;;;;2076369;28;20044;-72
2021/10/20 00:29:32;;;;;;;16.10;9.25;;;17.10;99.90;;;;;;2076974;28;20701;-73
2021/10/20 00:30:34;;;;;;;15.40;8.65;;;17.10;99.90;;;;;;2076105;28;20022;-74
2021/10/20 00:31:35;;;;;;;14.20;9.07;;;17.10;99.90;;;;;;2085508;28;20025;-73
2021/10/20 00:32:35;;;;;;;17.92;9.23;;;17.10;99.90;;;;;;2090310;28;20025;-73
2021/10/20 00:33:36;;;;;;;14.98;8.35;;;17.10;99.90;;;;;;2090523;28;20029;-72
2021/10/20 00:34:37;;;;;;;13.27;9.05;;;17.10;99.90;;;;;;2097187;28;20024;-72
2021/10/20 00:35:37;;;;;;;13.57;8.80;;;17.10;99.90;;;;;;2078824;28;20029;-73
2021/10/20 00:36:38;;;;;;;13.27;9.20;;;17.10;99.90;;;;;;2082080;28;20029;-72
2021/10/20 00:37:39;;;;;;;14.15;9.30;;;17.10;99.90;;;;;;2081444;28;20416;-72
2021/10/20 00:38:41;;;;;;;14.32;8.93;;;17.10;99.90;;;;;;2073811;28;20586;-74
2021/10/20 00:39:41;;;;;;;17.15;9.38;;;17.10;99.90;;;;;;2073485;28;20116;-73
2021/10/20 00:40:42;;;;;;;16.27;9.70;;;17.10;99.90;;;;;;2075714;28;20034;-72
2021/10/20 00:41:43;;;;;;;14.52;9.20;;;17.10;99.90;;;;;;2081652;28;20033;-73
2021/10/20 00:42:44;;;;;;;13.60;9.10;;;17.20;99.90;;;;;;2073969;28;20029;-72
2021/10/20 00:43:45;;;;;;;18.42;9.20;;;17.20;99.90;;;;;;2075029;28;20018;-72
2021/10/20 00:44:50;;;;;;;16.92;9.13;;;17.20;99.90;;;;;;2082694;28;20499;-72
2021/10/20 00:45:51;;;;;;;14.98;9.13;;;17.10;99.90;;;;;;2077301;28;20067;-72
2021/10/20 00:46:52;;;;;;;17.10;9.13;;;17.20;99.90;;;;;;2074321;28;20543;-73
2021/10/20 00:47:53;;;;;;;15.82;10.23;;;17.20;99.90;;;;;;2089918;28;20021;-72
2021/10/20 00:48:54;;;;;;;17.58;9.38;;;17.20;99.90;;;;;;2078760;28;20424;-74
2021/10/20 00:49:55;;;;;;;15.32;8.80;;;17.20;99.90;;;;;;2089888;28;20024;-72
2021/10/20 00:50:56;;;;;;;15.90;9.30;;;17.20;99.90;;;;;;2076449;28;20018;-72
2021/10/20 00:51:57;;;;;;;11.95;9.02;;;17.20;99.90;;;;;;2065611;28;20097;-73
2021/10/20 00:52:58;;;;;;;16.27;10.50;;;17.20;99.90;;;;;;2080857;28;20033;-74
2021/10/20 00:53:59;;;;;;;13.20;8.60;;;17.20;99.90;;;;;;2087639;28;20021;-73
2021/10/20 00:55:01;;;;;;;18.73;9.15;;;17.20;99.90;;;;;;2076139;28;20117;-72
2021/10/20 00:56:02;;;;;;;;;;;17.20;99.90;;;;;;2077028;28;20025;-73
2021/10/20 00:57:04;;;;;;;15.18;9.23;;;17.20;99.90;;;;;;2077522;28;20273;-73
2021/10/20 00:58:05;;;;;;;12.70;8.95;;;17.20;99.90;;;;;;2089154;28;20496;-71
2021/10/20 00:59:07;;;;;;;13.70;8.10;;;17.20;99.90;;;;;;2087385;28;20052;-73
2021/10/20 01:00:09;;;;;;;16.97;9.20;;;17.20;99.90;;;;;;2073891;28;20045;-72
2021/10/20 01:01:10;;;;;;;14.32;8.48;;;17.20;99.90;;;;;;2078025;28;20253;-72
2021/10/20 01:02:11;;;;;;;16.92;9.32;;;17.20;99.90;;;;;;2083763;28;20022;-77
2021/10/20 01:03:12;;;;;;;14.35;8.32;;;17.20;99.90;;;;;;2079387;28;20041;-71
2021/10/20 01:04:12;;;;;;;12.35;9.10;;;17.20;99.90;;;;;;2075746;28;20022;-73
2021/10/20 01:05:14;;;;;;;13.80;8.70;;;17.20;99.90;;;;;;2073626;28;20524;-73
2021/10/20 01:06:16;;;;;;;23.17;10.10;;;17.20;99.90;;;;;;2078417;28;20067;-73
2021/10/20 01:07:17;;;;;;;11.95;8.63;;;17.20;99.90;;;;;;2081932;28;20471;-73
2021/10/20 01:08:18;;;;;;;16.80;9.43;;;17.20;99.90;;;;;;2081196;28;20416;-73
2021/10/20 01:09:19;;;;;;;14.93;8.45;;;17.20;99.90;;;;;;2095745;28;20056;-72
2021/10/20 01:10:20;;;;;;;14.95;9.23;;;17.20;99.90;;;;;;2089613;28;20025;-73
2021/10/20 01:11:21;;;;;;;15.85;8.75;;;17.20;99.90;;;;;;2073688;28;20655;-72
2021/10/20 01:12:22;;;;;;;16.75;8.70;;;17.20;99.90;;;;;;2073265;28;20021;-73
2021/10/20 01:13:23;;;;;;;14.65;8.50;;;17.20;99.90;;;;;;2081486;28;20112;-72
2021/10/20 01:14:25;;;;;;;14.40;8.32;;;17.20;99.90;;;;;;2080834;28;20026;-71
2021/10/20 01:15:27;;;;;;;14.70;8.40;;;17.20;99.90;;;;;;2079377;28;20054;-73
2021/10/20 01:16:28;;;;;;;14.75;7.93;;;17.20;99.90;;;;;;2094578;28;20056;-73
2021/10/20 01:17:29;;;;;;;13.10;8.57;;;17.20;99.90;;;;;;2090136;28;20511;-74
2021/10/20 01:18:30;;;;;;;17.13;8.07;;;17.20;99.90;;;;;;2080782;28;20028;-72
2021/10/20 01:19:31;;;;;;;13.13;7.97;;;17.20;99.90;;;;;;2089210;28;20520;-72
2021/10/20 01:20:33;;;;;;;12.25;8.30;;;17.20;99.90;;;;;;2097938;28;20514;-73
2021/10/20 01:21:34;;;;;;;15.68;8.43;;;17.20;99.90;;;;;;2082209;28;20533;-72
2021/10/20 01:22:36;;;;;;;13.40;8.30;;;17.20;99.90;;;;;;2081859;28;20104;-74
2021/10/20 01:23:37;;;;;;;12.85;8.75;;;17.20;99.90;;;;;;2076577;28;20022;-72
2021/10/20 01:24:39;;;;;;;13.70;7.57;;;17.20;99.90;;;;;;2074265;28;20069;-74
2021/10/20 01:25:39;;;;;;;19.08;8.30;;;17.20;99.90;;;;;;2078464;28;20322;-72
2021/10/20 01:26:40;;;;;;;11.23;7.70;;;17.20;99.90;;;;;;2074029;28;20029;-75
2021/10/20 01:27:41;;;;;;;13.82;7.93;;;17.20;99.90;;;;;;2076952;28;20064;-75
2021/10/20 01:28:43;;;;;;;15.32;8.35;;;17.20;99.90;;;;;;2065288;28;20105;-73
2021/10/20 01:29:44;;;;;;;15.23;8.20;;;17.20;99.90;;;;;;2073057;28;20022;-74
2021/10/20 01:30:45;;;;;;;15.82;9.15;;;17.30;99.90;;;;;;2081255;28;20113;-72
2021/10/20 01:32:06;;;;;;;12.50;7.75;;;17.30;99.90;;;;;;2081456;28;20060;-72
2021/10/20 01:33:06;;;;;;;14.88;8.10;;;17.20;99.90;;;;;;2075709;28;20028;-73
2021/10/20 01:34:07;;;;;;;14.70;8.02;;;17.30;99.90;;;;;;2080070;28;20061;-73
2021/10/20 01:35:09;;;;;;;15.52;8.15;;;17.30;99.90;;;;;;2073953;28;20053;-73
2021/10/20 01:36:10;;;;;;;12.25;7.68;;;17.30;99.90;;;;;;2075338;28;20098;-74
2021/10/20 01:37:12;;;;;;;12.15;7.93;;;17.30;99.90;;;;;;2085383;28;20037;-73
2021/10/20 01:38:12;;;;;;;14.48;8.57;;;17.30;99.90;;;;;;2092218;28;20467;-73
2021/10/20 01:39:13;;;;;;;19.15;8.18;;;17.30;99.90;;;;;;2074444;28;20038;-73
2021/10/20 01:40:14;;;;;;;13.48;7.65;;;17.30;99.90;;;;;;2074088;28;20076;-73
2021/10/20 01:41:15;;;;;;;16.38;8.95;;;17.20;99.90;;;;;;2079615;28;20032;-74
2021/10/20 01:42:16;;;;;;;15.25;8.45;;;17.30;99.90;;;;;;2077719;28;20018;-74
2021/10/20 01:43:17;;;;;;;17.23;8.60;;;17.30;99.90;;;;;;2072737;28;20069;-73
2021/10/20 01:44:18;;;;;;;13.32;8.25;;;17.30;99.90;;;;;;2080946;28;20103;-73
2021/10/20 01:45:20;;;;;;;15.35;8.05;;;17.20;99.90;;;;;;2081570;28;20100;-71
2021/10/20 01:46:22;;;;;;;15.57;7.70;;;17.20;99.90;;;;;;2081225;28;20021;-73
2021/10/20 01:47:23;;;;;;;15.40;8.43;;;17.20;99.90;;;;;;2081078;28;20025;-73
2021/10/20 01:48:24;;;;;;;14.90;8.25;;;17.20;99.90;;;;;;2081088;28;20123;-74
2021/10/20 01:49:24;;;;;;;14.98;8.20;;;17.20;99.90;;;;;;2080687;28;20075;-74
2021/10/20 01:50:25;;;;;;;12.50;7.93;;;17.20;99.90;;;;;;2081269;28;20025;-74
2021/10/20 01:51:26;;;;;;;15.52;8.70;;;17.20;99.90;;;;;;2081525;28;20029;-72
2021/10/20 01:52:27;;;;;;;14.07;7.78;;;17.20;99.90;;;;;;2079728;28;20037;-74
2021/10/20 01:53:28;;;;;;;17.17;8.18;;;17.20;99.90;;;;;;2081468;28;20033;-72
2021/10/20 01:54:29;;;;;;;14.27;8.50;;;17.20;99.90;;;;;;2079935;28;20029;-72
2021/10/20 01:55:30;;;;;;;15.90;8.40;;;17.20;99.90;;;;;;2080826;28;20032;-74
2021/10/20 01:56:30;;;;;;;13.27;8.65;;;17.20;99.90;;;;;;2077598;28;20029;-73
2021/10/20 01:57:31;;;;;;;15.90;8.32;;;17.20;99.90;;;;;;2080900;28;20053;-73
2021/10/20 01:58:33;;;;;;;17.73;9.52;;;17.20;99.90;;;;;;2065332;28;20029;-72
2021/10/20 01:59:33;;;;;;;18.17;9.23;;;17.20;99.90;;;;;;2078593;28;20033;-73
2021/10/20 02:00:34;;;;;;;13.65;8.25;;;17.20;99.90;;;;;;2080755;28;20304;-73
2021/10/20 02:01:35;;;;;;;17.35;9.00;;;17.20;99.90;;;;;;2064760;28;20117;-74
2021/10/20 02:02:35;;;;;;;14.32;8.27;;;17.20;99.90;;;;;;2075840;28;20021;-74
2021/10/20 02:03:38;;;;;;;16.38;8.82;;;17.20;99.90;;;;;;2081828;28;20026;-74
2021/10/20 02:04:39;;;;;;;16.73;8.93;;;17.20;99.90;;;;;;2081512;28;20060;-73
2021/10/20 02:05:39;;;;;;;15.85;9.15;;;17.20;99.90;;;;;;2079651;28;20018;-72
2021/10/20 02:06:42;;;;;;;16.58;9.80;;;17.20;99.90;;;;;;2080943;28;20025;-73
2021/10/20 02:07:43;;;;;;;18.45;8.93;;;17.20;99.90;;;;;;2080586;28;20072;-73
2021/10/20 02:08:45;;;;;;;15.88;8.77;;;17.10;99.90;;;;;;2073037;28;20030;-71
2021/10/20 02:09:46;;;;;;;18.25;8.90;;;17.10;99.90;;;;;;2075129;28;20041;-73
2021/10/20 02:10:47;;;;;;;19.15;8.90;;;17.10;99.90;;;;;;2073576;28;20509;-73
2021/10/20 02:11:47;;;;;;;16.42;9.30;;;17.10;99.90;;;;;;2091714;28;20544;-73
2021/10/20 02:12:48;;;;;;;17.20;10.07;;;17.10;99.90;;;;;;2088362;28;20032;-71
2021/10/20 02:13:49;;;;;;;15.43;9.43;;;17.10;99.90;;;;;;2080931;28;20021;-73
2021/10/20 02:14:49;;;;;;;17.83;9.18;;;17.10;99.90;;;;;;2074796;28;20463;-72
2021/10/20 02:15:51;;;;;;;14.25;9.65;;;17.20;99.90;;;;;;2077974;28;20096;-73
2021/10/20 02:16:51;;;;;;;19.08;9.15;;;17.10;99.90;;;;;;2079280;28;20025;-73
2021/10/20 02:17:52;;;;;;;17.20;9.38;;;17.10;99.90;;;;;;2070918;28;20629;-72
2021/10/20 02:18:53;;;;;;;19.13;9.77;;;17.10;99.90;;;;;;2081240;28;20033;-71
2021/10/20 02:19:54;;;;;;;16.05;10.25;;;17.10;99.90;;;;;;2081457;28;20014;-73
2021/10/20 02:20:55;;;;;;;22.10;10.15;;;17.00;99.90;;;;;;2080828;28;20029;-73
2021/10/20 02:21:56;;;;;;;18.10;10.20;;;17.00;99.90;;;;;;2077410;28;20959;-73
2021/10/20 02:22:57;;;;;;;17.55;10.52;;;17.00;99.90;;;;;;2077285;28;20021;-73
2021/10/20 02:23:58;;;;;;;17.08;9.73;;;17.00;99.90;;;;;;2081408;28;20049;-73
2021/10/20 02:24:59;;;;;;;18.08;10.30;;;17.00;99.90;;;;;;2080955;28;20025;-73
2021/10/20 02:25:59;;;;;;;20.65;10.80;;;17.00;99.90;;;;;;2079220;28;20037;-72
2021/10/20 02:27:00;;;;;;;18.17;10.85;;;17.00;99.90;;;;;;2075932;28;20056;-72
2021/10/20 02:28:01;;;;;;;23.55;10.75;;;16.90;99.90;;;;;;2081453;28;20581;-73
2021/10/20 02:29:02;;;;;;;16.92;10.43;;;16.90;99.90;;;;;;2081222;28;20074;-74
2021/10/20 02:30:05;;;;;;;22.05;10.85;;;16.90;99.90;;;;;;2081836;28;20025;-73
2021/10/20 02:31:06;;;;;;;19.88;11.60;;;16.90;99.90;;;;;;2077018;28;20036;-73
2021/10/20 02:32:07;;;;;;;20.92;10.95;;;16.90;99.90;;;;;;2088849;28;20036;-73
2021/10/20 02:33:09;;;;;;;21.88;12.07;;;16.90;99.90;;;;;;2083921;28;20070;-73
2021/10/20 02:34:10;;;;;;;21.05;10.95;;;16.90;99.90;;;;;;2075926;28;20480;-73
2021/10/20 02:35:11;;;;;;;21.00;10.75;;;16.80;99.90;;;;;;2081674;28;20026;-72
2021/10/20 02:36:11;;;;;;;18.40;11.35;;;16.80;99.90;;;;;;2080572;28;20600;-73
2021/10/20 02:37:12;;;;;;;22.80;11.10;;;16.80;99.90;;;;;;2080755;28;20026;-73
2021/10/20 02:38:13;;;;;;;22.60;11.80;;;16.80;99.90;;;;;;2098956;28;20084;-74
2021/10/20 02:39:14;;;;;;;24.80;11.65;;;16.90;99.90;;;;;;2091807;28;20044;-73
2021/10/20 02:40:15;;;;;;;26.33;12.20;;;16.80;99.90;;;;;;2078431;28;20025;-73
2021/10/20 02:41:15;;;;;;;26.00;11.70;;;16.80;99.90;;;;;;2078979;28;20392;-73
2021/10/20 02:42:16;;;;;;;24.50;12.05;;;16.80;99.90;;;;;;2080527;28;20029;-72
2021/10/20 02:43:17;;;;;;;24.08;12.00;;;16.80;99.90;;;;;;2080812;28;20029;-72
2021/10/20 02:44:18;;;;;;;28.83;12.02;;;16.80;99.90;;;;;;2081162;28;20542;-72
2021/10/20 02:45:19;;;;;;;29.33;12.82;;;16.80;99.90;;;;;;2080742;28;20026;-74
2021/10/20 02:46:19;;;;;;;25.27;11.73;;;16.80;99.90;;;;;;2081033;28;20020;-73
2021/10/20 02:47:20;;;;;;;24.15;13.20;;;16.80;99.90;;;;;;2078092;28;20025;-74
2021/10/20 02:48:21;;;;;;;32.17;12.93;;;16.80;99.90;;;;;;2074835;28;20084;-73
2021/10/20 02:49:22;;;;;;;25.52;12.10;;;16.70;99.90;;;;;;2072889;28;20101;-72
2021/10/20 02:50:22;;;;;;;44.67;13.85;;;16.70;99.90;;;;;;2073330;28;20026;-73
2021/10/20 02:51:24;;;;;;;28.30;12.15;;;16.60;99.90;;;;;;2081560;28;20611;-72
2021/10/20 02:52:24;;;;;;;23.13;12.60;;;16.60;99.90;;;;;;2080601;28;20508;-73
2021/10/20 02:53:25;;;;;;;28.65;12.52;;;16.60;99.90;;;;;;2080847;28;20033;-73
2021/10/20 02:54:26;;;;;;;29.15;12.50;;;16.60;99.90;;;;;;2079374;28;20028;-73
2021/10/20 02:55:26;;;;;;;28.25;13.05;;;16.60;99.90;;;;;;2078899;28;20108;-73
2021/10/20 02:56:27;;;;;;;32.53;12.80;;;16.60;99.90;;;;;;2081449;28;20026;-71
2021/10/20 02:57:28;;;;;;;32.08;12.40;;;16.60;99.90;;;;;;2081244;28;20060;-72
2021/10/20 02:58:29;;;;;;;35.53;12.57;;;16.60;99.90;;;;;;2080716;28;20032;-71
2021/10/20 02:59:29;;;;;;;40.65;13.38;;;16.60;99.90;;;;;;2067275;28;20137;-73
2021/10/20 03:00:30;;;;;;;29.02;13.40;;;16.60;99.90;;;;;;2064497;28;20042;-75
2021/10/20 03:01:31;;;;;;;27.67;12.07;;;16.50;99.90;;;;;;2068508;28;20046;-72
2021/10/20 03:02:32;;;;;;;32.83;13.07;;;16.50;99.90;;;;;;2066820;28;20026;-72
2021/10/20 03:03:33;;;;;;;31.70;13.40;;;16.50;99.90;;;;;;2072566;28;20030;-74
2021/10/20 03:04:34;;;;;;;30.25;13.10;;;16.50;99.90;;;;;;2076318;28;20014;-74
2021/10/20 03:05:34;;;;;;;33.28;13.60;;;16.50;99.90;;;;;;2080262;28;20115;-73
2021/10/20 03:06:35;;;;;;;31.83;13.45;;;16.50;99.90;;;;;;2079334;28;20017;-73
2021/10/20 03:07:36;;;;;;;31.83;13.35;;;16.50;99.90;;;;;;2072999;28;20056;-73
2021/10/20 03:08:37;;;;;;;32.58;13.25;;;16.50;99.90;;;;;;2072079;28;20068;-73
2021/10/20 03:09:37;;;;;;;29.13;13.20;;;16.50;99.90;;;;;;2081199;28;20032;-75
2021/10/20 03:10:39;;;;;;;31.55;13.60;;;16.50;99.90;;;;;;2084086;28;20392;-73
2021/10/20 03:11:40;;;;;;;33.67;13.52;;;16.40;99.90;;;;;;2080311;28;20034;-73
2021/10/20 03:12:41;;;;;;;27.05;13.10;;;16.40;99.90;;;;;;2086928;28;20038;-74
2021/10/20 03:13:41;;;;;;;37.60;14.77;;;16.40;99.90;;;;;;2088747;28;20660;-74
2021/10/20 03:14:42;;;;;;;30.55;14.20;;;16.40;99.90;;;;;;2077632;28;20025;-71
2021/10/20 03:15:43;;;;;;;28.58;12.85;;;16.40;99.90;;;;;;2077642;28;20030;-74
2021/10/20 03:16:43;;;;;;;32.63;13.80;;;16.30;99.90;;;;;;2076121;28;20030;-73
2021/10/20 03:17:44;;;;;;;36.80;15.05;;;16.30;99.90;;;;;;2076652;28;20112;-73
2021/10/20 03:18:45;;;;;;;30.80;15.23;;;16.30;99.90;;;;;;2088978;28;20080;-74
2021/10/20 03:19:45;;;;;;;31.05;13.75;;;16.30;99.90;;;;;;2088533;28;20051;-73
2021/10/20 03:20:46;;;;;;;37.63;14.35;;;16.30;99.90;;;;;;2081295;28;20100;-74
2021/10/20 03:21:47;;;;;;;27.45;13.65;;;16.30;99.90;;;;;;2080781;28;20034;-73
2021/10/20 03:22:47;;;;;;;32.67;14.82;;;16.30;99.90;;;;;;2080164;28;20536;-73
2021/10/20 03:23:48;;;;;;;35.38;13.88;;;16.30;99.90;;;;;;2078594;28;20026;-74
2021/10/20 03:24:49;;;;;;;29.83;14.60;;;16.30;99.90;;;;;;2079418;28;20021;-74
2021/10/20 03:25:50;;;;;;;36.97;14.70;;;16.20;99.90;;;;;;2069435;28;20120;-74
2021/10/20 03:26:51;;;;;;;27.70;12.95;;;16.20;99.90;;;;;;2075704;28;20018;-74
2021/10/20 03:27:52;;;;;;;24.05;12.45;;;16.20;99.90;;;;;;2078440;28;20033;-72
2021/10/20 03:28:53;;;;;;;26.60;12.80;;;16.20;99.90;;;;;;2081216;28;20026;-74
2021/10/20 03:29:53;;;;;;;24.25;12.30;;;16.20;99.90;;;;;;2081097;28;20075;-73
2021/10/20 03:30:54;;;;;;;22.73;12.27;;;16.20;99.90;;;;;;2080188;28;20021;-73
2021/10/20 03:31:55;;;;;;;22.20;11.10;;;16.20;99.90;;;;;;2080551;28;20029;-73
2021/10/20 03:32:55;;;;;;;22.08;11.82;;;16.20;99.90;;;;;;2075784;28;20065;-72
2021/10/20 03:33:56;;;;;;;20.23;11.30;;;16.20;99.90;;;;;;2081019;28;20115;-74
2021/10/20 03:34:57;;;;;;;22.67;11.77;;;16.20;99.90;;;;;;2081051;28;20104;-73
2021/10/20 03:35:58;;;;;;;25.30;11.82;;;16.20;99.90;;;;;;2079941;28;20044;-73
2021/10/20 03:36:58;;;;;;;20.50;11.02;;;16.20;99.90;;;;;;2072762;28;20030;-74
2021/10/20 03:37:59;;;;;;;19.30;10.35;;;16.20;99.90;;;;;;2080241;28;20448;-73
2021/10/20 03:38:59;;;;;;;20.90;10.20;;;16.20;99.90;;;;;;2088767;28;20116;-73
2021/10/20 03:40:01;;;;;;;20.67;10.68;;;16.20;99.90;;;;;;2080532;28;20083;-73
2021/10/20 03:41:03;;;;;;;16.42;10.55;;;16.20;99.90;;;;;;2079794;28;20512;-74
2021/10/20 03:42:03;;;;;;;26.50;12.00;;;16.20;99.90;;;;;;2077398;28;20079;-74
2021/10/20 03:43:04;;;;;;;16.00;9.32;;;16.20;99.90;;;;;;2065728;28;20033;-74
2021/10/20 03:44:05;;;;;;;19.95;10.18;;;16.20;99.90;;;;;;2068115;28;20044;-72
2021/10/20 03:45:06;;;;;;;20.45;9.18;;;16.20;99.90;;;;;;2080597;28;20521;-72
2021/10/20 03:46:07;;;;;;;18.98;9.63;;;16.20;99.90;;;;;;2079965;28;20029;-73
2021/10/20 03:47:08;;;;;;;19.13;10.55;;;16.20;99.90;;;;;;2072256;28;20109;-72
2021/10/20 03:48:09;;;;;;;19.48;10.18;;;16.20;99.90;;;;;;2078836;28;20021;-74
2021/10/20 03:49:10;;;;;;;20.00;10.05;;;16.20;99.90;;;;;;2074087;28;20046;-74
2021/10/20 03:50:10;;;;;;;18.65;9.95;;;16.20;99.90;;;;;;2074488;28;20494;-74
2021/10/20 03:51:11;;;;;;;20.25;10.32;;;16.20;99.90;;;;;;2080859;28;20022;-73
2021/10/20 03:52:12;;;;;;;21.42;10.52;;;16.20;99.90;;;;;;2081400;28;20029;-72
2021/10/20 03:53:13;;;;;;;17.30;10.40;;;16.10;99.90;;;;;;2074785;28;20064;-72
2021/10/20 03:54:14;;;;;;;21.92;10.45;;;16.20;99.90;;;;;;2078348;28;20155;-73
2021/10/20 03:55:14;;;;;;;20.80;10.77;;;16.20;99.90;;;;;;2082295;28;20056;-72
2021/10/20 03:56:15;;;;;;;20.80;10.60;;;16.20;99.90;;;;;;2082036;28;20446;-72
2021/10/20 03:57:16;;;;;;;21.85;10.60;;;16.10;99.90;;;;;;2081997;28;20623;-73
2021/10/20 03:58:17;;;;;;;14.65;10.20;;;16.10;99.90;;;;;;2075296;28;20030;-77
2021/10/20 03:59:18;;;;;;;18.83;11.02;;;16.10;99.90;;;;;;2078021;28;20087;-74
2021/10/20 04:00:19;;;;;;;20.67;10.23;;;16.10;99.90;;;;;;2082097;28;20083;-73
2021/10/20 04:01:20;;;;;;;21.67;10.70;;;16.10;99.90;;;;;;2081549;28;20034;-73
2021/10/20 04:02:20;;;;;;;21.65;10.65;;;16.10;99.90;;;;;;2081377;28;20803;-72
2021/10/20 04:03:21;;;;;;;22.25;11.60;;;16.00;99.90;;;;;;2074130;28;20026;-72
2021/10/20 04:04:22;;;;;;;18.25;10.95;;;16.00;99.90;;;;;;2074150;28;20018;-73
2021/10/20 04:05:23;;;;;;;20.77;10.55;;;16.00;99.90;;;;;;2076301;28;20029;-73
2021/10/20 04:06:24;;;;;;;30.40;12.10;;;15.90;99.90;;;;;;2081508;28;20544;-74
2021/10/20 04:07:24;;;;;;;35.90;12.75;;;15.90;99.90;;;;;;2067828;28;20265;-73
2021/10/20 04:08:25;;;;;;;35.10;13.02;;;15.90;99.90;;;;;;2082304;28;20719;-73
2021/10/20 04:09:26;;;;;;;42.88;12.65;;;15.90;99.90;;;;;;2078766;28;20022;-73
2021/10/20 04:10:27;;;;;;;44.70;13.15;;;15.80;99.90;;;;;;2090378;28;20071;-73
2021/10/20 04:11:28;;;;;;;29.83;11.77;;;15.80;99.90;;;;;;2081472;28;20025;-72
2021/10/20 04:12:28;;;;;;;34.13;12.60;;;15.80;99.90;;;;;;2073233;28;20363;-74
2021/10/20 04:13:29;;;;;;;29.05;11.98;;;15.80;99.90;;;;;;2075167;28;20053;-72
2021/10/20 04:14:30;;;;;;;29.35;12.10;;;15.80;99.90;;;;;;2076983;28;20768;-75
2021/10/20 04:15:30;;;;;;;29.23;11.98;;;15.80;99.90;;;;;;2075493;28;20037;-73
2021/10/20 04:16:31;;;;;;;29.25;11.63;;;15.80;99.90;;;;;;2080290;28;20501;-73
2021/10/20 04:17:32;;;;;;;28.50;12.25;;;15.80;99.90;;;;;;2082856;28;20473;-74
2021/10/20 04:18:32;;;;;;;31.92;12.00;;;15.80;99.90;;;;;;2081766;28;20022;-73
2021/10/20 04:19:33;;;;;;;32.33;11.43;;;15.80;99.90;;;;;;2082015;28;20029;-74
2021/10/20 04:20:34;;;;;;;31.70;11.77;;;15.80;99.90;;;;;;2078723;28;20057;-72
2021/10/20 04:21:35;;;;;;;32.70;11.45;;;15.80;99.90;;;;;;2081794;28;20064;-73
2021/10/20 04:22:36;;;;;;;30.33;11.57;;;15.80;99.90;;;;;;2090636;28;20076;-73
2021/10/20 04:23:36;;;;;;;27.63;12.15;;;15.80;99.90;;;;;;2077879;28;20036;-73
2021/10/20 04:24:37;;;;;;;27.58;11.45;;;15.80;99.90;;;;;;2080073;28;20018;-72
2021/10/20 04:25:38;;;;;;;32.08;11.88;;;15.80;99.90;;;;;;2084693;28;20782;-72
2021/10/20 04:26:38;;;;;;;25.27;10.70;;;15.90;99.90;;;;;;2089988;28;20021;-72
2021/10/20 04:27:40;;;;;;;23.13;11.07;;;15.90;99.90;;;;;;2082151;28;20029;-72
2021/10/20 04:28:41;;;;;;;19.98;9.68;;;15.90;99.90;;;;;;2082468;28;20026;-73
2021/10/20 04:29:41;;;;;;;30.20;11.63;;;15.90;99.90;;;;;;2082216;28;20029;-72
2021/10/20 04:30:42;;;;;;;19.55;10.02;;;15.90;99.90;;;;;;2082355;28;20021;-72
2021/10/20 04:31:43;;;;;;;22.75;10.80;;;15.90;99.90;;;;;;2079105;28;20031;-71
2021/10/20 04:32:44;;;;;;;19.98;10.00;;;15.90;99.90;;;;;;2079280;28;20447;-73
2021/10/20 04:33:45;;;;;;;20.52;11.10;;;16.00;99.90;;;;;;2080712;28;20538;-73
2021/10/20 04:34:45;;;;;;;21.77;9.75;;;15.90;99.90;;;;;;2079648;28;20017;-71
2021/10/20 04:35:46;;;;;;;22.30;9.98;;;16.00;99.90;;;;;;2098966;28;20505;-72
2021/10/20 04:36:47;;;;;;;20.48;9.27;;;16.00;99.90;;;;;;2101176;28;20507;-73
2021/10/20 04:37:47;;;;;;;18.15;9.43;;;16.00;99.90;;;;;;2079044;28;20029;-72
2021/10/20 04:38:48;;;;;;;20.10;8.90;;;16.00;99.90;;;;;;2081037;28;20079;-72
2021/10/20 04:39:49;;;;;;;19.08;9.27;;;16.00;99.90;;;;;;2082156;28;20117;-73
2021/10/20 04:40:50;;;;;;;20.33;9.13;;;16.00;99.90;;;;;;2082195;28;20045;-74
2021/10/20 04:41:50;;;;;;;20.55;9.52;;;16.00;99.90;;;;;;2082287;28;20481;-73
2021/10/20 04:42:51;;;;;;;23.05;9.27;;;16.00;99.90;;;;;;2081841;28;20021;-72
2021/10/20 04:43:52;;;;;;;21.88;9.82;;;16.10;99.90;;;;;;2071761;28;20037;-73
2021/10/20 04:44:53;;;;;;;27.88;9.88;;;16.10;99.90;;;;;;2081062;28;20022;-71
2021/10/20 04:45:54;;;;;;;17.90;8.85;;;16.00;99.90;;;;;;2079177;28;20562;-73
2021/10/20 04:46:54;;;;;;;18.58;9.13;;;16.10;99.90;;;;;;2081693;28;20112;-74
2021/10/20 04:47:55;;;;;;;20.38;8.82;;;16.00;99.90;;;;;;2081353;28;20480;-73
2021/10/20 04:48:56;;;;;;;18.65;8.90;;;16.10;99.90;;;;;;2079110;28;20520;-72
2021/10/20 04:49:57;;;;;;;20.08;8.93;;;16.10;99.90;;;;;;2073433;28;20477;-72
2021/10/20 04:50:58;;;;;;;20.63;9.05;;;16.10;99.90;;;;;;2081522;28;20084;-72
2021/10/20 04:51:58;;;;;;;18.15;8.07;;;16.00;99.90;;;;;;2074996;28;20026;-71
2021/10/20 04:52:59;;;;;;;15.95;8.32;;;16.00;99.90;;;;;;2080858;28;20112;-72
2021/10/20 04:54:00;;;;;;;13.57;8.15;;;16.00;99.90;;;;;;2079454;28;20108;-72
2021/10/20 04:55:01;;;;;;;14.43;8.20;;;16.00;99.90;;;;;;2073507;28;20084;-73
2021/10/20 04:56:01;;;;;;;13.70;7.75;;;16.00;99.90;;;;;;2078595;28;20092;-74
2021/10/20 04:57:02;;;;;;;16.00;8.30;;;15.90;99.90;;;;;;2081829;28;20060;-72
2021/10/20 04:58:07;;;;;;;21.17;9.18;;;16.00;99.90;;;;;;2081283;28;20025;-72
2021/10/20 04:59:08;;;;;;;18.75;8.38;;;15.90;99.90;;;;;;2078987;28;20556;-72
2021/10/20 05:00:09;;;;;;;12.77;8.02;;;15.90;99.90;;;;;;2086996;28;20028;-73
2021/10/20 05:01:10;;;;;;;21.42;8.85;;;15.90;99.90;;;;;;2095479;28;20028;-74
2021/10/20 05:02:11;;;;;;;13.25;7.53;;;15.90;99.90;;;;;;2076661;28;20030;-75
2021/10/20 05:03:11;;;;;;;18.73;8.07;;;15.90;99.90;;;;;;2081170;28;20018;-73
2021/10/20 05:04:12;;;;;;;24.92;8.18;;;15.90;99.90;;;;;;2082397;28;20030;-73
2021/10/20 05:05:13;;;;;;;20.17;8.50;;;15.90;99.90;;;;;;2073689;28;20072;-73
2021/10/20 05:06:14;;;;;;;22.10;8.43;;;16.00;99.90;;;;;;2077160;28;20733;-72
2021/10/20 05:07:15;;;;;;;20.35;8.52;;;15.90;99.90;;;;;;2075764;28;20157;-73
2021/10/20 05:08:15;;;;;;;17.83;8.13;;;15.90;99.90;;;;;;2080537;28;20022;-73
2021/10/20 05:09:16;;;;;;;25.05;9.10;;;15.90;99.90;;;;;;2076938;28;20445;-73
2021/10/20 05:10:18;;;;;;;18.65;8.95;;;16.00;99.90;;;;;;2082168;28;20049;-74
2021/10/20 05:11:18;;;;;;;19.58;8.57;;;16.00;99.90;;;;;;2081144;28;20579;-73
2021/10/20 05:12:19;;;;;;;19.33;8.60;;;16.00;99.90;;;;;;2073403;28;20032;-73